createdAt,value
2022-09-04T00:01:17.449Z,13.30
2022-09-04T00:03:34.819Z,11.68
2022-09-04T00:05:51.691Z,13.98
2022-09-04T00:08:08.670Z,9.65
2022-09-04T00:10:26.980Z,11.02
2022-09-04T00:12:44.244Z,12.90
2022-09-04T00:15:01.500Z,11.80
2022-09-04T00:17:18.835Z,15.02
2022-09-04T00:19:36.877Z,11.80
2022-09-04T00:21:54.182Z,11.82
2022-09-04T00:24:11.205Z,13.32
2022-09-04T00:26:28.550Z,12.68
2022-09-04T00:28:45.859Z,14.02
2022-09-04T00:31:03.890Z,10.32
2022-09-04T00:33:20.987Z,9.38
2022-09-04T00:35:38.027Z,12.98
2022-09-04T00:37:56.977Z,9.93
2022-09-04T00:40:14.108Z,11.82
2022-09-04T00:42:31.388Z,10.88
2022-09-04T00:44:48.694Z,10.50
2022-09-04T00:47:08.875Z,13.63
2022-09-04T00:49:25.901Z,14.15
2022-09-04T00:51:42.897Z,8.30
2022-09-04T00:54:00.001Z,11.13
2022-09-04T00:56:17.301Z,10.60
2022-09-04T01:03:27.508Z,11.05
2022-09-04T01:05:46.427Z,10.95
2022-09-04T01:08:03.713Z,11.63
2022-09-04T01:10:20.687Z,11.63
2022-09-04T01:12:37.627Z,17.75
2022-09-04T01:14:55.545Z,11.60
2022-09-04T01:17:12.652Z,13.05
2022-09-04T01:19:30.356Z,13.40
2022-09-04T01:21:47.336Z,18.38
2022-09-04T01:24:04.311Z,14.65
2022-09-04T01:26:22.688Z,13.55
2022-09-04T01:28:39.696Z,16.50
2022-09-04T01:30:57.126Z,13.90
2022-09-04T01:33:14.509Z,16.05
2022-09-04T01:35:31.475Z,12.95
2022-09-04T01:37:49.502Z,15.48
2022-09-04T01:40:06.871Z,13.43
2022-09-04T01:42:23.970Z,12.20
2022-09-04T01:44:41.053Z,11.40
2022-09-04T01:46:59.054Z,10.82
2022-09-04T01:49:16.027Z,12.20
2022-09-04T01:51:34.324Z,10.98
2022-09-04T01:53:51.221Z,8.27
2022-09-04T01:56:09.641Z,10.88
2022-09-04T01:58:26.648Z,14.85
2022-09-04T02:00:44.072Z,12.18
2022-09-04T02:03:04.414Z,13.15
2022-09-04T02:05:21.352Z,13.98
2022-09-04T02:07:38.410Z,10.27
2022-09-04T02:09:55.445Z,13.60
2022-09-04T02:12:12.518Z,15.85
2022-09-04T02:14:30.649Z,13.70
2022-09-04T02:16:47.672Z,10.45
2022-09-04T02:19:04.781Z,10.32
2022-09-04T02:21:21.811Z,13.00
2022-09-04T02:23:38.728Z,11.80
2022-09-04T02:25:55.750Z,13.00
2022-09-04T02:28:12.797Z,15.35
2022-09-04T02:30:29.841Z,13.65
2022-09-04T02:32:47.127Z,14.25
2022-09-04T02:35:04.975Z,11.38
2022-09-04T02:37:22.237Z,12.23
2022-09-04T02:39:40.060Z,10.00
2022-09-04T02:41:57.341Z,12.25
2022-09-04T02:44:14.375Z,16.25
2022-09-04T02:46:31.831Z,16.13
2022-09-04T02:48:49.172Z,13.00
2022-09-04T02:51:07.536Z,13.57
2022-09-04T02:53:24.806Z,13.80
2022-09-04T02:55:41.875Z,12.93
2022-09-04T02:57:58.970Z,17.42
2022-09-04T03:00:18.216Z,14.23
2022-09-04T03:02:38.136Z,15.90
2022-09-04T03:04:55.424Z,14.30
2022-09-04T03:07:12.433Z,16.45
2022-09-04T03:09:29.472Z,13.93
2022-09-04T03:11:46.637Z,16.17
2022-09-04T03:14:03.927Z,11.52
2022-09-04T03:16:20.887Z,16.50
2022-09-04T03:18:38.168Z,11.93
2022-09-04T03:20:55.106Z,12.65
2022-09-04T03:23:12.379Z,11.93
2022-09-04T03:25:29.337Z,12.23
2022-09-04T03:27:46.667Z,17.15
2022-09-04T03:30:03.571Z,18.90
2022-09-04T03:32:20.497Z,19.05
2022-09-04T03:34:37.595Z,16.83
2022-09-04T03:36:54.827Z,18.25
2022-09-04T03:39:12.088Z,14.38
2022-09-04T03:41:29.153Z,16.02
2022-09-04T03:43:46.424Z,17.85
2022-09-04T03:46:03.362Z,14.70
2022-09-04T03:48:20.421Z,12.23
2022-09-04T03:50:37.514Z,14.48
2022-09-04T03:52:54.612Z,14.80
2022-09-04T03:55:11.566Z,15.18
2022-09-04T03:57:28.866Z,14.48
2022-09-04T03:59:45.962Z,13.68
2022-09-04T04:02:02.901Z,12.25
2022-09-04T04:04:20.110Z,13.63
2022-09-04T04:06:37.378Z,12.32
2022-09-04T04:08:54.450Z,12.15
2022-09-04T04:11:11.751Z,12.55
2022-09-04T04:13:28.662Z,13.45
2022-09-04T04:15:45.764Z,16.98
2022-09-04T04:18:02.854Z,15.88
2022-09-04T04:20:20.102Z,15.32
2022-09-04T04:22:37.493Z,16.38
2022-09-04T04:24:54.832Z,16.48
2022-09-04T04:27:11.928Z,13.80
2022-09-04T04:29:29.189Z,14.07
2022-09-04T04:31:46.987Z,12.48
2022-09-04T04:34:04.393Z,11.77
2022-09-04T04:36:25.236Z,12.38
2022-09-04T04:38:42.366Z,14.82
2022-09-04T04:40:59.298Z,14.93
2022-09-04T04:43:16.610Z,15.35
2022-09-04T04:45:33.659Z,12.93
2022-09-04T04:47:50.592Z,14.25
2022-09-04T04:50:07.570Z,12.05
2022-09-04T04:52:24.603Z,12.05
2022-09-04T04:54:41.615Z,11.70
2022-09-04T04:56:58.925Z,11.48
2022-09-04T04:59:16.197Z,12.05
2022-09-04T05:01:33.189Z,15.05
2022-09-04T05:03:50.328Z,12.23
2022-09-04T05:06:07.257Z,12.10
2022-09-04T05:08:24.705Z,13.40
2022-09-04T05:10:41.802Z,11.38
2022-09-04T05:12:58.754Z,13.15
2022-09-04T05:15:15.731Z,13.32
2022-09-04T05:17:32.956Z,11.75
2022-09-04T05:19:50.937Z,11.23
2022-09-04T05:22:09.393Z,10.02
2022-09-04T05:24:26.322Z,11.95
2022-09-04T05:26:43.258Z,11.80
2022-09-04T05:29:00.520Z,13.00
2022-09-04T05:31:17.607Z,14.48
2022-09-04T05:33:35.665Z,12.90
2022-09-04T05:35:53.165Z,13.63
2022-09-04T05:38:10.849Z,15.95
2022-09-04T05:40:28.161Z,13.35
2022-09-04T05:42:45.089Z,11.05
2022-09-04T05:45:02.019Z,13.80
2022-09-04T05:47:19.053Z,12.35
2022-09-04T05:49:36.079Z,13.10
2022-09-04T05:51:53.151Z,14.30
2022-09-04T05:54:10.192Z,11.70
2022-09-04T05:56:27.220Z,11.38
2022-09-04T05:58:45.436Z,15.00
2022-09-04T06:01:03.636Z,9.82
2022-09-04T06:03:20.583Z,12.60
2022-09-04T06:05:37.945Z,11.90
2022-09-04T06:07:55.244Z,11.15
2022-09-04T06:10:12.502Z,10.50
2022-09-04T06:12:29.454Z,12.07
2022-09-04T06:14:46.353Z,9.73
2022-09-04T06:17:03.432Z,12.25
2022-09-04T06:19:20.499Z,8.88
2022-09-04T06:21:38.749Z,9.60
2022-09-04T06:23:55.779Z,7.20
2022-09-04T06:26:12.793Z,8.73
2022-09-04T06:28:30.053Z,8.95
2022-09-04T06:30:47.335Z,8.05
2022-09-04T06:33:04.444Z,7.13
2022-09-04T06:35:21.497Z,6.70
2022-09-04T06:37:38.774Z,9.23
2022-09-04T06:39:56.138Z,10.60
2022-09-04T06:42:13.683Z,9.63
2022-09-04T06:44:31.865Z,8.73
2022-09-04T06:46:48.977Z,7.93
2022-09-04T06:49:06.157Z,8.55
2022-09-04T06:51:23.393Z,8.73
2022-09-04T06:53:40.467Z,10.18
2022-09-04T06:55:57.454Z,9.65
2022-09-04T06:58:14.535Z,8.57
2022-09-04T07:00:32.870Z,10.00
2022-09-04T07:02:51.159Z,9.80
2022-09-04T07:05:09.660Z,8.50
2022-09-04T07:07:26.697Z,8.85
2022-09-04T07:09:44.684Z,8.07
2022-09-04T07:12:01.999Z,7.13
2022-09-04T07:14:19.241Z,10.27
2022-09-04T07:16:36.562Z,7.40
2022-09-04T07:18:54.412Z,8.73
2022-09-04T07:21:11.429Z,8.52
2022-09-04T07:23:28.554Z,10.77
2022-09-04T07:25:45.584Z,8.05
2022-09-04T07:28:02.601Z,7.78
2022-09-04T07:30:19.505Z,6.63
2022-09-04T07:32:36.589Z,6.95
2022-09-04T07:34:53.505Z,7.15
2022-09-04T07:37:10.449Z,9.40
2022-09-04T07:39:27.543Z,7.63
2022-09-04T07:41:44.592Z,8.88
2022-09-04T07:44:01.866Z,7.35
2022-09-04T07:46:18.944Z,6.72
2022-09-04T07:48:36.044Z,8.13
2022-09-04T07:50:53.080Z,6.25
2022-09-04T07:53:11.383Z,11.68
2022-09-04T07:55:28.523Z,7.75
2022-09-04T07:57:45.468Z,8.15
2022-09-04T08:00:02.487Z,13.25
2022-09-04T08:02:19.832Z,10.75
2022-09-04T08:04:37.227Z,7.45
2022-09-04T08:06:54.361Z,8.73
2022-09-04T08:09:11.344Z,8.75
2022-09-04T08:11:28.261Z,7.93
2022-09-04T08:13:45.632Z,9.20
2022-09-04T08:16:02.984Z,7.03
2022-09-04T08:18:20.139Z,9.50
2022-09-04T08:20:37.454Z,8.82
2022-09-04T08:22:54.406Z,8.90
2022-09-04T08:25:13.322Z,8.40
2022-09-04T08:27:30.624Z,7.28
2022-09-04T08:29:47.855Z,8.02
2022-09-04T08:32:04.823Z,9.18
2022-09-04T08:34:21.798Z,7.50
2022-09-04T08:36:39.127Z,6.47
2022-09-04T08:38:56.420Z,6.65
2022-09-04T08:41:13.466Z,7.85
2022-09-04T08:43:30.484Z,6.10
2022-09-04T08:45:47.899Z,7.95
2022-09-04T08:48:05.223Z,8.85
2022-09-04T08:50:22.166Z,7.30
2022-09-04T08:52:39.889Z,7.20
2022-09-04T08:54:57.206Z,8.07
2022-09-04T08:57:14.554Z,6.13
2022-09-04T08:59:31.494Z,7.25
2022-09-04T09:01:48.720Z,7.25
2022-09-04T09:04:06.054Z,9.30
2022-09-04T09:06:23.148Z,7.47
2022-09-04T09:08:40.158Z,7.80
2022-09-04T09:10:57.223Z,7.82
2022-09-04T09:13:14.199Z,7.15
2022-09-04T09:15:31.202Z,6.50
2022-09-04T09:17:48.240Z,5.82
2022-09-04T09:20:05.439Z,6.05
2022-09-04T09:22:22.547Z,6.68
2022-09-04T09:24:39.819Z,5.38
2022-09-04T09:26:56.806Z,6.63
2022-09-04T09:29:14.144Z,5.20
2022-09-04T09:31:31.484Z,6.35
2022-09-04T09:33:49.600Z,6.97
2022-09-04T09:36:06.943Z,6.57
2022-09-04T09:38:25.220Z,6.60
2022-09-04T09:40:42.161Z,6.63
2022-09-04T09:42:59.074Z,5.40
2022-09-04T09:45:16.445Z,4.75
2022-09-04T09:47:33.680Z,4.78
2022-09-04T09:49:51.917Z,5.55
2022-09-04T09:52:08.872Z,5.25
2022-09-04T09:54:26.156Z,5.57
2022-09-04T09:56:43.121Z,4.32
2022-09-04T09:59:11.023Z,4.40
2022-09-04T10:01:28.081Z,3.92
2022-09-04T10:03:45.048Z,7.95
2022-09-04T10:06:02.479Z,3.00
2022-09-04T10:08:35.439Z,5.13
2022-09-04T10:10:53.388Z,4.55
2022-09-04T10:13:10.396Z,3.22
2022-09-04T10:15:27.366Z,3.80
2022-09-04T10:17:44.692Z,3.60
2022-09-04T10:20:01.658Z,3.88
2022-09-04T10:22:18.552Z,4.57
2022-09-04T10:24:35.587Z,3.60
2022-09-04T10:26:53.534Z,3.88
2022-09-04T10:29:10.609Z,4.13
2022-09-04T10:31:27.688Z,4.32
2022-09-04T10:33:44.716Z,4.28
2022-09-04T10:36:01.652Z,3.15
2022-09-04T10:38:18.626Z,3.60
2022-09-04T10:40:38.432Z,3.20
2022-09-04T10:42:57.914Z,4.55
2022-09-04T10:45:14.966Z,2.88
2022-09-04T10:47:32.042Z,5.55
2022-09-04T10:49:50.005Z,4.68
2022-09-04T10:52:07.123Z,3.75
2022-09-04T10:54:24.426Z,3.75
2022-09-04T10:56:41.410Z,3.22
2022-09-04T10:58:58.758Z,6.35
2022-09-04T11:01:15.881Z,3.17
2022-09-04T11:03:33.044Z,3.95
2022-09-04T11:05:50.161Z,4.43
2022-09-04T11:08:07.500Z,4.03
2022-09-04T11:10:24.775Z,3.08
2022-09-04T11:12:41.787Z,4.82
2022-09-04T11:14:58.756Z,3.47
2022-09-04T11:17:15.718Z,3.15
2022-09-04T11:19:33.382Z,3.47
2022-09-04T11:21:50.338Z,3.58
2022-09-04T11:24:07.435Z,3.28
2022-09-04T11:26:26.056Z,3.00
2022-09-04T11:28:43.330Z,3.13
2022-09-04T11:31:00.614Z,2.60
2022-09-04T11:33:18.030Z,3.28
2022-09-04T11:35:35.106Z,3.17
2022-09-04T11:37:55.801Z,3.65
2022-09-04T11:40:14.624Z,3.25
2022-09-04T11:42:31.917Z,2.90
2022-09-04T11:44:48.989Z,2.90
2022-09-04T11:47:06.021Z,2.88
2022-09-04T11:49:23.635Z,3.05
2022-09-04T11:51:40.658Z,3.38
2022-09-04T11:53:58.005Z,2.70
2022-09-04T11:56:16.005Z,3.88
2022-09-04T11:58:34.427Z,3.22
2022-09-04T12:00:51.839Z,4.88
2022-09-04T12:03:08.891Z,3.17
2022-09-04T12:05:27.096Z,3.00
2022-09-04T12:07:44.408Z,2.90
2022-09-04T12:10:01.538Z,3.00
2022-09-04T12:12:18.774Z,3.40
2022-09-04T12:14:36.043Z,3.58
2022-09-04T12:16:53.135Z,4.15
2022-09-04T12:19:11.157Z,4.53
2022-09-04T12:21:29.105Z,4.38
2022-09-04T12:23:46.040Z,3.03
2022-09-04T12:26:02.906Z,4.75
2022-09-04T12:28:19.922Z,3.05
2022-09-04T12:30:37.367Z,2.85
2022-09-04T12:32:55.627Z,3.17
2022-09-04T12:35:12.893Z,4.18
2022-09-04T12:37:32.001Z,3.35
2022-09-04T12:39:49.082Z,3.15
2022-09-04T12:42:06.151Z,2.72
2022-09-04T12:44:23.266Z,3.05
2022-09-04T12:46:40.405Z,2.95
2022-09-04T12:48:57.440Z,2.90
2022-09-04T12:51:14.685Z,4.82
2022-09-04T12:53:32.792Z,3.83
2022-09-04T12:55:49.844Z,2.58
2022-09-04T12:58:07.134Z,4.65
2022-09-04T13:00:24.177Z,2.50
2022-09-04T13:02:41.275Z,3.20
2022-09-04T13:04:58.674Z,2.63
2022-09-04T13:07:16.510Z,3.22
2022-09-04T13:09:33.939Z,2.33
2022-09-04T13:11:51.217Z,2.60
2022-09-04T13:14:08.161Z,2.40
2022-09-04T13:16:26.308Z,2.60
2022-09-04T13:18:43.593Z,3.75
2022-09-04T13:21:01.660Z,2.42
2022-09-04T13:23:18.674Z,3.45
2022-09-04T13:25:36.027Z,2.50
2022-09-04T13:27:53.019Z,2.40
2022-09-04T13:30:10.327Z,2.22
2022-09-04T13:32:27.596Z,3.67
2022-09-04T13:34:44.592Z,5.32
2022-09-04T13:37:01.680Z,4.80
2022-09-04T13:39:18.727Z,2.92
2022-09-04T13:41:36.044Z,4.43
2022-09-04T13:43:53.109Z,3.88
2022-09-04T13:46:10.121Z,6.47
2022-09-04T13:48:27.424Z,2.80
2022-09-04T13:50:44.388Z,2.40
2022-09-04T13:53:01.370Z,4.55
2022-09-04T13:55:18.646Z,2.65
2022-09-04T13:57:35.628Z,2.40
2022-09-04T13:59:52.952Z,3.70
2022-09-04T14:02:11.012Z,2.53
2022-09-04T14:04:28.281Z,3.28
2022-09-04T14:06:45.413Z,2.70
2022-09-04T14:09:05.493Z,2.40
2022-09-04T14:11:23.236Z,3.13
2022-09-04T14:13:40.274Z,2.40
2022-09-04T14:15:57.656Z,4.03
2022-09-04T14:18:14.616Z,4.65
2022-09-04T14:20:31.638Z,3.13
2022-09-04T14:22:48.631Z,3.38
2022-09-04T14:25:11.863Z,2.45
2022-09-04T14:27:31.649Z,2.28
2022-09-04T14:29:48.879Z,4.45
2022-09-04T14:32:06.188Z,4.57
2022-09-04T14:34:23.358Z,3.05
2022-09-04T14:36:40.675Z,2.33
2022-09-04T14:38:57.641Z,2.47
2022-09-04T14:41:14.920Z,3.13
2022-09-04T14:43:33.201Z,2.63
2022-09-04T14:45:50.468Z,2.88
2022-09-04T14:48:07.441Z,2.30
2022-09-04T14:50:24.436Z,2.55
2022-09-04T14:52:41.744Z,4.18
2022-09-04T14:54:58.673Z,3.42
2022-09-04T14:57:15.923Z,2.75
2022-09-04T14:59:33.229Z,2.72
2022-09-04T15:01:50.379Z,4.15
2022-09-04T15:04:08.874Z,5.72
2022-09-04T15:06:29.048Z,3.13
2022-09-04T15:08:48.471Z,2.63
2022-09-04T15:11:05.436Z,2.60
2022-09-04T15:13:23.766Z,3.85
2022-09-04T15:15:41.947Z,3.97
2022-09-04T15:17:59.249Z,3.30
2022-09-04T15:20:17.385Z,4.43
2022-09-04T15:22:35.632Z,7.32
2022-09-04T15:24:52.735Z,5.40
2022-09-04T15:27:09.640Z,6.22
2022-09-04T15:29:26.775Z,6.57
2022-09-04T15:31:43.917Z,5.75
2022-09-04T15:34:01.209Z,3.05
2022-09-04T15:36:18.165Z,3.53
2022-09-04T15:38:35.476Z,4.43
2022-09-04T15:41:15.089Z,6.00
2022-09-04T15:43:31.545Z,2.50
2022-09-04T15:45:48.588Z,2.75
2022-09-04T15:48:06.675Z,2.83
2022-09-04T15:50:23.680Z,4.90
2022-09-04T15:52:41.001Z,4.30
2022-09-04T15:54:58.225Z,4.43
2022-09-04T15:57:15.194Z,3.92
2022-09-04T15:59:33.456Z,3.35
2022-09-04T16:01:50.756Z,2.42
2022-09-04T16:04:07.740Z,2.80
2022-09-04T16:06:24.774Z,2.80
2022-09-04T16:08:41.833Z,3.58
2022-09-04T16:10:59.897Z,3.22
2022-09-04T16:13:18.369Z,2.45
2022-09-04T16:15:35.365Z,3.45
2022-09-04T16:17:52.408Z,3.30
2022-09-04T16:20:09.414Z,3.58
2022-09-04T16:22:27.505Z,5.78
2022-09-04T16:24:44.429Z,3.30
2022-09-04T16:27:01.736Z,4.05
2022-09-04T16:29:21.207Z,4.47
2022-09-04T16:31:41.341Z,2.95
2022-09-04T16:33:59.692Z,3.83
2022-09-04T16:36:17.668Z,5.53
2022-09-04T16:38:37.034Z,4.72
2022-09-04T16:40:54.113Z,3.30
2022-09-04T16:43:11.434Z,4.88
2022-09-04T16:45:28.374Z,3.83
2022-09-04T16:47:46.280Z,6.63
2022-09-04T16:50:03.292Z,2.80
2022-09-04T16:52:20.597Z,4.07
2022-09-04T16:54:38.557Z,6.13
2022-09-04T16:57:12.097Z,6.45
2022-09-04T16:59:30.578Z,5.15
2022-09-04T17:01:47.767Z,6.55
2022-09-04T17:04:12.685Z,4.15
2022-09-04T17:06:30.992Z,5.35
2022-09-04T17:08:48.305Z,7.47
2022-09-04T17:11:05.366Z,5.07
2022-09-04T17:13:27.959Z,3.30
2022-09-04T17:15:53.340Z,3.22
2022-09-04T17:18:11.318Z,3.00
2022-09-04T17:20:50.295Z,6.28
2022-09-04T17:29:03.251Z,4.72
2022-09-04T17:29:11.309Z,4.18
2022-09-04T17:29:15.595Z,2.60
2022-09-04T17:30:56.461Z,5.22
2022-09-04T17:40:36.139Z,6.07
2022-09-04T17:40:38.802Z,4.65
2022-09-04T17:40:48.847Z,3.17
2022-09-04T17:41:38.243Z,6.07
2022-09-04T17:43:41.567Z,3.03
2022-09-04T17:45:58.586Z,3.88
2022-09-04T17:48:16.891Z,4.25
2022-09-04T17:50:33.979Z,4.32
2022-09-04T17:52:51.062Z,5.50
2022-09-04T17:55:08.106Z,5.75
2022-09-04T17:57:26.102Z,4.35
2022-09-04T17:59:45.697Z,4.82
2022-09-04T18:02:03.095Z,5.93
2022-09-04T18:04:22.396Z,4.93
2022-09-04T18:06:40.043Z,4.55
2022-09-04T18:08:57.343Z,4.55
2022-09-04T18:11:14.321Z,4.95
2022-09-04T18:13:37.906Z,5.50
2022-09-04T18:18:12.657Z,4.63
2022-09-04T18:20:29.757Z,6.07
2022-09-04T18:22:46.835Z,6.38
2022-09-04T18:25:16.229Z,5.38
2022-09-04T18:27:34.748Z,5.70
2022-09-04T18:32:01.859Z,4.68
2022-09-04T18:37:09.264Z,4.28
2022-09-04T18:37:20.593Z,5.00
2022-09-04T18:37:47.433Z,4.65
2022-09-04T18:40:04.891Z,6.07
2022-09-04T18:50:20.282Z,4.20
2022-09-04T18:50:48.965Z,4.93
2022-09-04T18:50:50.872Z,4.07
2022-09-04T18:50:53.391Z,5.32
2022-09-04T18:52:51.161Z,4.18
2022-09-04T18:55:08.126Z,3.55
2022-09-04T18:57:25.071Z,4.05
2022-09-04T18:59:42.139Z,3.70
2022-09-04T19:01:59.700Z,4.13
2022-09-04T19:04:18.991Z,4.40
2022-09-04T19:06:37.605Z,4.28
2022-09-04T19:08:54.565Z,5.30
2022-09-04T19:11:20.541Z,6.28
2022-09-04T19:13:38.509Z,3.53
2022-09-04T19:15:55.774Z,6.20
2022-09-04T19:18:14.130Z,4.93
2022-09-04T19:20:31.325Z,5.20
2022-09-04T19:22:53.992Z,4.95
2022-09-04T19:25:12.927Z,5.72
2022-09-04T19:27:30.013Z,4.93
2022-09-04T19:29:47.165Z,6.45
2022-09-04T19:32:04.206Z,5.32
2022-09-04T19:34:21.387Z,6.47
2022-09-04T19:36:38.649Z,6.03
2022-09-04T19:46:00.511Z,7.85
2022-09-04T19:46:02.918Z,5.78
2022-09-04T19:46:08.504Z,8.98
2022-09-04T19:46:48.850Z,5.40
2022-09-04T19:50:57.094Z,6.18
2022-09-04T19:53:32.178Z,4.55
2022-09-04T19:54:20.410Z,5.25
2022-09-04T19:57:32.973Z,5.28
2022-09-04T19:59:14.786Z,6.10
2022-09-04T20:01:33.232Z,4.90
2022-09-04T20:03:50.589Z,4.75
2022-09-04T20:06:20.049Z,5.20
2022-09-04T20:08:38.553Z,4.65
2022-09-04T20:10:55.849Z,6.03
2022-09-04T20:13:13.118Z,5.35
2022-09-04T20:15:31.883Z,5.03
2022-09-04T20:17:50.153Z,5.03
2022-09-04T20:20:07.123Z,3.88
2022-09-04T20:22:24.001Z,3.97
2022-09-04T20:24:42.228Z,5.10
2022-09-04T20:27:20.876Z,4.45
2022-09-04T20:29:37.927Z,8.50
2022-09-04T20:31:55.015Z,4.13
2022-09-04T20:34:12.336Z,6.38
2022-09-04T20:36:30.305Z,5.20
2022-09-04T20:38:47.376Z,4.30
2022-09-04T20:41:04.471Z,5.38
2022-09-04T20:43:21.848Z,4.70
2022-09-04T20:48:17.363Z,4.03
2022-09-04T20:52:49.773Z,6.82
2022-09-04T20:52:56.685Z,5.22
2022-09-04T20:53:30.821Z,5.20
2022-09-04T20:55:47.999Z,4.97
2022-09-04T21:03:06.681Z,5.10
2022-09-04T21:03:20.214Z,6.00
2022-09-04T21:03:34.754Z,7.53
2022-09-04T21:05:56.361Z,4.72
2022-09-04T21:08:24.402Z,5.35
2022-09-04T21:10:44.141Z,4.57
2022-09-04T21:13:22.783Z,4.75
2022-09-04T21:15:39.006Z,4.00
2022-09-04T21:17:56.052Z,4.97
2022-09-04T21:20:13.027Z,7.57
2022-09-04T21:22:32.870Z,4.03
2022-09-04T21:24:50.667Z,9.13
2022-09-04T21:27:07.993Z,6.95
2022-09-04T21:29:26.322Z,6.07
2022-09-04T21:31:44.354Z,7.13
2022-09-04T21:34:02.174Z,6.18
2022-09-04T21:36:26.025Z,4.90
2022-09-04T21:38:44.292Z,6.80
2022-09-04T21:41:02.575Z,5.72
2022-09-04T21:43:19.719Z,6.10
2022-09-04T21:45:36.758Z,8.60
2022-09-04T21:47:53.926Z,3.90
2022-09-04T21:50:13.206Z,6.00
2022-09-04T21:52:30.698Z,4.95
2022-09-04T21:57:17.626Z,4.03
2022-09-04T22:02:32.208Z,5.03
2022-09-04T22:02:37.796Z,3.75
2022-09-04T22:02:59.636Z,6.82
2022-09-04T22:05:17.337Z,4.57
2022-09-04T22:12:24.401Z,5.63
2022-09-04T22:13:30.217Z,8.13
2022-09-04T22:13:41.992Z,4.70
2022-09-04T22:15:29.312Z,4.25
2022-09-04T22:17:46.558Z,5.13
2022-09-04T22:20:04.117Z,4.13
2022-09-04T22:22:21.442Z,6.03
2022-09-04T22:24:41.067Z,3.97
2022-09-04T22:26:58.545Z,4.75
2022-09-04T22:29:15.601Z,5.57
2022-09-04T22:31:32.975Z,4.10
2022-09-04T22:34:15.040Z,4.00
2022-09-04T22:36:26.957Z,5.32
2022-09-04T22:38:44.940Z,10.25
2022-09-04T22:41:02.831Z,4.45
2022-09-04T22:43:20.176Z,9.18
2022-09-04T22:45:37.240Z,3.85
2022-09-04T22:47:54.271Z,6.13
2022-09-04T22:50:11.539Z,5.75
2022-09-04T22:52:28.787Z,5.78
2022-09-04T22:54:45.741Z,5.22
2022-09-04T22:57:02.632Z,4.15
2022-09-04T22:59:26.344Z,5.07
2022-09-04T23:01:44.842Z,6.25
2022-09-04T23:04:02.007Z,4.30
2022-09-04T23:08:05.759Z,5.75
2022-09-04T23:13:49.616Z,4.85
2022-09-04T23:13:50.645Z,5.28
2022-09-04T23:14:14.652Z,5.28
2022-09-04T23:16:34.803Z,5.65
2022-09-04T23:22:56.578Z,6.10
2022-09-04T23:26:32.772Z,5.45
2022-09-04T23:26:44.828Z,5.97
2022-09-04T23:27:01.490Z,5.10
2022-09-04T23:29:19.365Z,5.15
2022-09-04T23:31:38.828Z,4.20
2022-09-04T23:33:56.122Z,5.72
2022-09-04T23:36:13.451Z,4.18
2022-09-04T23:38:30.490Z,4.15
2022-09-04T23:40:47.797Z,4.63
2022-09-04T23:43:07.459Z,6.90
2022-09-04T23:45:24.733Z,4.90
2022-09-04T23:47:47.967Z,5.53
2022-09-04T23:50:06.444Z,5.10
2022-09-04T23:52:27.103Z,6.40
2022-09-04T23:54:44.346Z,7.60
2022-09-04T23:57:01.275Z,5.68
2022-09-04T23:59:33.859Z,6.68
